sensor_id;sensor_type;location;lat;lon;timestamp;pressure;altitude;pressure_sealevel;temperature;humidity
10992;BME280;5549;47.028;15.514;2023-04-08T00:01:08;96498.91;;;8.40;45.61
10992;BME280;5549;47.028;15.514;2023-04-08T00:03:37;96498.31;;;8.47;45.71
10992;BME280;5549;47.028;15.514;2023-04-08T00:06:08;96506.16;;;8.47;45.76
10992;BME280;5549;47.028;15.514;2023-04-08T00:08:35;96499.75;;;8.51;46.09
10992;BME280;5549;47.028;15.514;2023-04-08T00:11:05;96499.03;;;8.49;45.74
10992;BME280;5549;47.028;15.514;2023-04-08T00:13:32;96505.84;;;8.28;46.64
10992;BME280;5549;47.028;15.514;2023-04-08T00:16:02;96498.06;;;8.39;45.61
10992;BME280;5549;47.028;15.514;2023-04-08T00:18:34;96493.44;;;8.08;47.12
10992;BME280;5549;47.028;15.514;2023-04-08T00:21:05;96490.03;;;8.18;46.69
10992;BME280;5549;47.028;15.514;2023-04-08T00:23:35;96494.78;;;8.24;46.74
10992;BME280;5549;47.028;15.514;2023-04-08T00:26:05;96499.78;;;8.27;46.71
10992;BME280;5549;47.028;15.514;2023-04-08T00:28:35;96485.88;;;8.27;46.85
10992;BME280;5549;47.028;15.514;2023-04-08T00:31:02;96487.06;;;8.23;46.59
10992;BME280;5549;47.028;15.514;2023-04-08T00:33:34;96491.19;;;8.03;47.80
10992;BME280;5549;47.028;15.514;2023-04-08T00:36:02;96490.88;;;8.19;47.02
10992;BME280;5549;47.028;15.514;2023-04-08T00:38:29;96492.16;;;8.13;47.13
10992;BME280;5549;47.028;15.514;2023-04-08T00:40:57;96491.59;;;8.21;46.77
10992;BME280;5549;47.028;15.514;2023-04-08T00:43:27;96483.50;;;8.24;47.10
10992;BME280;5549;47.028;15.514;2023-04-08T00:45:57;96493.13;;;8.23;47.06
10992;BME280;5549;47.028;15.514;2023-04-08T00:48:27;96491.22;;;8.25;46.66
10992;BME280;5549;47.028;15.514;2023-04-08T00:50:58;96493.25;;;8.22;47.01
10992;BME280;5549;47.028;15.514;2023-04-08T00:53:30;96497.03;;;8.07;47.99
10992;BME280;5549;47.028;15.514;2023-04-08T00:55:57;96494.06;;;8.11;47.91
10992;BME280;5549;47.028;15.514;2023-04-08T00:58:27;96501.03;;;7.99;48.25
10992;BME280;5549;47.028;15.514;2023-04-08T01:01:02;96492.00;;;8.03;48.14
10992;BME280;5549;47.028;15.514;2023-04-08T01:03:41;96497.84;;;8.07;48.09
10992;BME280;5549;47.028;15.514;2023-04-08T01:06:21;96491.31;;;8.13;48.18
10992;BME280;5549;47.028;15.514;2023-04-08T01:08:54;96489.19;;;8.18;47.94
10992;BME280;5549;47.028;15.514;2023-04-08T01:11:25;96485.03;;;8.15;47.93
10992;BME280;5549;47.028;15.514;2023-04-08T01:13:57;96487.41;;;8.18;47.84
10992;BME280;5549;47.028;15.514;2023-04-08T01:16:29;96482.72;;;7.99;48.79
10992;BME280;5549;47.028;15.514;2023-04-08T01:19:00;96486.97;;;7.89;49.05
10992;BME280;5549;47.028;15.514;2023-04-08T01:21:32;96483.81;;;7.97;48.98
10992;BME280;5549;47.028;15.514;2023-04-08T01:24:08;96479.75;;;7.93;49.35
10992;BME280;5549;47.028;15.514;2023-04-08T01:26:43;96482.31;;;7.82;49.63
10992;BME280;5549;47.028;15.514;2023-04-08T01:29:12;96483.63;;;7.76;49.98
10992;BME280;5549;47.028;15.514;2023-04-08T01:31:41;96476.97;;;7.83;50.00
10992;BME280;5549;47.028;15.514;2023-04-08T01:34:09;96481.25;;;7.84;50.04
10992;BME280;5549;47.028;15.514;2023-04-08T01:36:41;96482.44;;;7.80;50.19
10992;BME280;5549;47.028;15.514;2023-04-08T01:39:14;96479.59;;;7.83;50.53
10992;BME280;5549;47.028;15.514;2023-04-08T01:41:45;96480.28;;;7.74;50.18
10992;BME280;5549;47.028;15.514;2023-04-08T01:44:15;96475.66;;;7.78;50.09
10992;BME280;5549;47.028;15.514;2023-04-08T01:46:59;96475.75;;;7.17;52.72
10992;BME280;5549;47.028;15.514;2023-04-08T01:49:33;96477.69;;;7.50;51.97
10992;BME280;5549;47.028;15.514;2023-04-08T01:52:05;96482.63;;;7.66;50.98
10992;BME280;5549;47.028;15.514;2023-04-08T01:54:41;96469.66;;;7.64;50.66
10992;BME280;5549;47.028;15.514;2023-04-08T01:57:16;96479.28;;;7.64;50.90
10992;BME280;5549;47.028;15.514;2023-04-08T02:00:04;96478.38;;;7.76;50.45
10992;BME280;5549;47.028;15.514;2023-04-08T02:02:42;96475.91;;;7.51;52.12
10992;BME280;5549;47.028;15.514;2023-04-08T02:05:12;96474.13;;;7.51;51.27
10992;BME280;5549;47.028;15.514;2023-04-08T02:07:47;96472.13;;;7.31;52.05
10992;BME280;5549;47.028;15.514;2023-04-08T02:10:24;96474.41;;;7.35;51.84
10992;BME280;5549;47.028;15.514;2023-04-08T02:12:54;96483.25;;;7.46;51.56
10992;BME280;5549;47.028;15.514;2023-04-08T02:15:27;96486.59;;;7.48;51.80
10992;BME280;5549;47.028;15.514;2023-04-08T02:18:01;96480.19;;;7.04;53.28
10992;BME280;5549;47.028;15.514;2023-04-08T02:20:37;96478.50;;;7.03;53.95
10992;BME280;5549;47.028;15.514;2023-04-08T02:23:16;96482.03;;;7.15;53.29
10992;BME280;5549;47.028;15.514;2023-04-08T02:25:47;96489.16;;;7.36;52.48
10992;BME280;5549;47.028;15.514;2023-04-08T02:28:18;96482.13;;;7.37;52.77
10992;BME280;5549;47.028;15.514;2023-04-08T02:30:51;96478.41;;;7.28;53.26
10992;BME280;5549;47.028;15.514;2023-04-08T02:33:22;96483.19;;;7.34;53.28
10992;BME280;5549;47.028;15.514;2023-04-08T02:35:51;96484.69;;;7.50;52.35
10992;BME280;5549;47.028;15.514;2023-04-08T02:38:23;96490.09;;;7.35;52.82
10992;BME280;5549;47.028;15.514;2023-04-08T02:40:55;96487.47;;;7.12;54.27
10992;BME280;5549;47.028;15.514;2023-04-08T02:43:24;96482.63;;;7.42;53.08
10992;BME280;5549;47.028;15.514;2023-04-08T02:46:00;96480.09;;;7.53;52.77
10992;BME280;5549;47.028;15.514;2023-04-08T02:48:31;96477.50;;;7.64;52.19
10992;BME280;5549;47.028;15.514;2023-04-08T02:50:58;96477.41;;;7.66;51.67
10992;BME280;5549;47.028;15.514;2023-04-08T02:53:28;96476.75;;;7.51;52.16
10992;BME280;5549;47.028;15.514;2023-04-08T02:55:55;96478.63;;;7.49;52.78
10992;BME280;5549;47.028;15.514;2023-04-08T02:58:24;96480.47;;;7.60;51.93
10992;BME280;5549;47.028;15.514;2023-04-08T03:00:53;96477.97;;;7.34;53.08
10992;BME280;5549;47.028;15.514;2023-04-08T03:03:22;96473.59;;;7.35;53.60
10992;BME280;5549;47.028;15.514;2023-04-08T03:05:54;96483.63;;;7.52;52.34
10992;BME280;5549;47.028;15.514;2023-04-08T03:08:24;96480.34;;;7.61;52.59
10992;BME280;5549;47.028;15.514;2023-04-08T03:10:52;96481.25;;;7.25;53.84
10992;BME280;5549;47.028;15.514;2023-04-08T03:13:19;96482.97;;;7.14;54.34
10992;BME280;5549;47.028;15.514;2023-04-08T03:15:48;96480.81;;;7.31;53.44
10992;BME280;5549;47.028;15.514;2023-04-08T03:18:19;96479.00;;;7.08;55.28
10992;BME280;5549;47.028;15.514;2023-04-08T03:20:47;96480.47;;;7.12;55.68
10992;BME280;5549;47.028;15.514;2023-04-08T03:23:15;96477.19;;;7.21;55.09
10992;BME280;5549;47.028;15.514;2023-04-08T03:25:43;96478.03;;;6.72;56.35
10992;BME280;5549;47.028;15.514;2023-04-08T03:28:10;96481.00;;;6.30;58.14
10992;BME280;5549;47.028;15.514;2023-04-08T03:30:38;96468.53;;;6.71;57.47
10992;BME280;5549;47.028;15.514;2023-04-08T03:33:07;96475.59;;;6.82;57.03
10992;BME280;5549;47.028;15.514;2023-04-08T03:35:36;96475.69;;;6.93;57.10
10992;BME280;5549;47.028;15.514;2023-04-08T03:38:06;96476.56;;;6.94;56.96
10992;BME280;5549;47.028;15.514;2023-04-08T03:40:33;96477.06;;;6.86;57.47
10992;BME280;5549;47.028;15.514;2023-04-08T03:43:03;96482.03;;;7.15;57.23
10992;BME280;5549;47.028;15.514;2023-04-08T03:45:34;96494.38;;;7.36;55.63
10992;BME280;5549;47.028;15.514;2023-04-08T03:48:04;96499.66;;;7.48;56.28
10992;BME280;5549;47.028;15.514;2023-04-08T03:50:36;96491.13;;;7.57;55.65
10992;BME280;5549;47.028;15.514;2023-04-08T03:53:03;96493.97;;;7.54;56.08
10992;BME280;5549;47.028;15.514;2023-04-08T03:55:33;96496.59;;;7.54;56.00
10992;BME280;5549;47.028;15.514;2023-04-08T03:58:03;96494.38;;;7.60;55.46
10992;BME280;5549;47.028;15.514;2023-04-08T04:00:31;96498.31;;;7.66;56.24
10992;BME280;5549;47.028;15.514;2023-04-08T04:03:01;96506.31;;;7.52;56.88
10992;BME280;5549;47.028;15.514;2023-04-08T04:05:28;96507.13;;;7.04;59.65
10992;BME280;5549;47.028;15.514;2023-04-08T04:07:57;96515.22;;;7.25;58.90
10992;BME280;5549;47.028;15.514;2023-04-08T04:10:27;96520.22;;;7.28;59.44
10992;BME280;5549;47.028;15.514;2023-04-08T04:12:55;96522.66;;;7.43;59.63
10992;BME280;5549;47.028;15.514;2023-04-08T04:15:22;96523.06;;;7.49;60.14
10992;BME280;5549;47.028;15.514;2023-04-08T04:17:50;96524.28;;;7.56;58.92
10992;BME280;5549;47.028;15.514;2023-04-08T04:20:20;96530.00;;;7.61;58.88
10992;BME280;5549;47.028;15.514;2023-04-08T04:22:48;96534.06;;;7.65;59.38
10992;BME280;5549;47.028;15.514;2023-04-08T04:25:19;96525.28;;;7.66;58.86
10992;BME280;5549;47.028;15.514;2023-04-08T04:27:47;96537.78;;;7.74;58.74
10992;BME280;5549;47.028;15.514;2023-04-08T04:30:15;96541.13;;;7.76;58.16
10992;BME280;5549;47.028;15.514;2023-04-08T04:32:46;96538.47;;;7.65;57.59
10992;BME280;5549;47.028;15.514;2023-04-08T04:35:16;96536.34;;;7.70;57.27
10992;BME280;5549;47.028;15.514;2023-04-08T04:37:46;96539.78;;;7.70;57.73
10992;BME280;5549;47.028;15.514;2023-04-08T04:40:15;96543.69;;;7.65;57.57
10992;BME280;5549;47.028;15.514;2023-04-08T04:42:44;96545.13;;;7.69;57.23
10992;BME280;5549;47.028;15.514;2023-04-08T04:45:12;96548.25;;;7.74;57.60
10992;BME280;5549;47.028;15.514;2023-04-08T04:47:42;96548.47;;;7.71;57.42
10992;BME280;5549;47.028;15.514;2023-04-08T04:50:12;96553.91;;;7.68;58.97
10992;BME280;5549;47.028;15.514;2023-04-08T04:52:39;96551.19;;;7.69;60.53
10992;BME280;5549;47.028;15.514;2023-04-08T04:55:08;96562.69;;;7.67;62.40
10992;BME280;5549;47.028;15.514;2023-04-08T04:57:36;96559.59;;;7.62;63.28
10992;BME280;5549;47.028;15.514;2023-04-08T05:00:07;96560.66;;;7.59;63.60
10992;BME280;5549;47.028;15.514;2023-04-08T05:02:35;96557.75;;;7.51;64.32
10992;BME280;5549;47.028;15.514;2023-04-08T05:05:03;96561.53;;;7.47;63.13
10992;BME280;5549;47.028;15.514;2023-04-08T05:07:35;96563.44;;;7.32;64.76
10992;BME280;5549;47.028;15.514;2023-04-08T05:10:06;96570.13;;;7.36;63.97
10992;BME280;5549;47.028;15.514;2023-04-08T05:12:34;96568.16;;;7.27;64.43
10992;BME280;5549;47.028;15.514;2023-04-08T05:15:06;96573.28;;;7.29;65.28
10992;BME280;5549;47.028;15.514;2023-04-08T05:17:34;96575.91;;;7.29;65.39
10992;BME280;5549;47.028;15.514;2023-04-08T05:20:02;96580.63;;;7.24;65.12
10992;BME280;5549;47.028;15.514;2023-04-08T05:22:30;96591.06;;;7.24;65.61
10992;BME280;5549;47.028;15.514;2023-04-08T05:24:59;96590.00;;;7.26;65.81
10992;BME280;5549;47.028;15.514;2023-04-08T05:27:27;96586.44;;;7.27;65.62
10992;BME280;5549;47.028;15.514;2023-04-08T05:29:55;96591.47;;;7.30;65.62
10992;BME280;5549;47.028;15.514;2023-04-08T05:32:24;96584.13;;;7.35;66.44
10992;BME280;5549;47.028;15.514;2023-04-08T05:34:54;96581.84;;;7.31;66.10
10992;BME280;5549;47.028;15.514;2023-04-08T05:37:22;96584.34;;;7.32;66.45
10992;BME280;5549;47.028;15.514;2023-04-08T05:39:49;96595.69;;;6.95;68.89
10992;BME280;5549;47.028;15.514;2023-04-08T05:42:19;96590.34;;;7.09;67.56
10992;BME280;5549;47.028;15.514;2023-04-08T05:44:46;96590.44;;;7.20;66.65
10992;BME280;5549;47.028;15.514;2023-04-08T05:47:14;96598.06;;;7.23;67.34
10992;BME280;5549;47.028;15.514;2023-04-08T05:49:45;96594.72;;;7.21;66.89
10992;BME280;5549;47.028;15.514;2023-04-08T05:52:13;96603.50;;;7.20;67.83
10992;BME280;5549;47.028;15.514;2023-04-08T05:54:43;96603.28;;;7.23;67.50
10992;BME280;5549;47.028;15.514;2023-04-08T05:57:14;96610.78;;;7.28;66.87
10992;BME280;5549;47.028;15.514;2023-04-08T05:59:44;96602.75;;;7.31;67.11
10992;BME280;5549;47.028;15.514;2023-04-08T06:02:11;96606.69;;;7.36;67.45
10992;BME280;5549;47.028;15.514;2023-04-08T06:04:41;96612.34;;;7.30;68.17
10992;BME280;5549;47.028;15.514;2023-04-08T06:07:12;96614.25;;;7.28;68.45
10992;BME280;5549;47.028;15.514;2023-04-08T06:09:40;96614.59;;;7.60;71.97
10992;BME280;5549;47.028;15.514;2023-04-08T06:12:07;96610.19;;;8.09;72.45
10992;BME280;5549;47.028;15.514;2023-04-08T06:14:37;96605.53;;;8.60;69.87
10992;BME280;5549;47.028;15.514;2023-04-08T06:17:05;96603.34;;;9.11;67.26
10992;BME280;5549;47.028;15.514;2023-04-08T06:19:32;96601.28;;;9.59;65.01
10992;BME280;5549;47.028;15.514;2023-04-08T06:22:00;96596.75;;;10.05;62.47
10992;BME280;5549;47.028;15.514;2023-04-08T06:24:29;96605.47;;;10.37;59.59
10992;BME280;5549;47.028;15.514;2023-04-08T06:26:56;96602.00;;;10.69;57.78
10992;BME280;5549;47.028;15.514;2023-04-08T06:29:24;96607.16;;;11.01;58.04
10992;BME280;5549;47.028;15.514;2023-04-08T06:31:54;96604.66;;;11.30;57.80
10992;BME280;5549;47.028;15.514;2023-04-08T06:34:21;96609.47;;;11.55;55.94
10992;BME280;5549;47.028;15.514;2023-04-08T06:36:49;96610.69;;;11.81;54.76
10992;BME280;5549;47.028;15.514;2023-04-08T06:39:17;96612.81;;;12.07;53.63
10992;BME280;5549;47.028;15.514;2023-04-08T06:41:48;96617.00;;;12.29;52.84
10992;BME280;5549;47.028;15.514;2023-04-08T06:44:18;96617.56;;;12.32;51.45
10992;BME280;5549;47.028;15.514;2023-04-08T06:46:45;96621.56;;;12.56;51.38
10992;BME280;5549;47.028;15.514;2023-04-08T06:49:15;96624.91;;;12.58;50.20
10992;BME280;5549;47.028;15.514;2023-04-08T06:51:43;96630.31;;;12.66;49.76
10992;BME280;5549;47.028;15.514;2023-04-08T06:54:11;96625.00;;;12.85;49.49
10992;BME280;5549;47.028;15.514;2023-04-08T06:56:38;96631.13;;;12.18;49.72
10992;BME280;5549;47.028;15.514;2023-04-08T06:59:07;96632.25;;;12.44;50.33
10992;BME280;5549;47.028;15.514;2023-04-08T07:01:35;96638.63;;;12.61;50.17
10992;BME280;5549;47.028;15.514;2023-04-08T07:04:02;96631.13;;;12.76;49.72
10992;BME280;5549;47.028;15.514;2023-04-08T07:06:32;96648.28;;;12.99;49.58
10992;BME280;5549;47.028;15.514;2023-04-08T07:09:00;96640.50;;;13.17;49.08
10992;BME280;5549;47.028;15.514;2023-04-08T07:11:30;96642.00;;;13.29;48.41
10992;BME280;5549;47.028;15.514;2023-04-08T07:13:58;96651.94;;;13.45;48.07
10992;BME280;5549;47.028;15.514;2023-04-08T07:16:26;96643.16;;;13.54;47.72
10992;BME280;5549;47.028;15.514;2023-04-08T07:18:56;96652.81;;;13.36;46.99
10992;BME280;5549;47.028;15.514;2023-04-08T07:21:24;96650.28;;;12.49;47.33
10992;BME280;5549;47.028;15.514;2023-04-08T07:23:54;96653.22;;;11.56;49.21
10992;BME280;5549;47.028;15.514;2023-04-08T07:26:24;96656.84;;;10.83;51.96
10992;BME280;5549;47.028;15.514;2023-04-08T07:28:53;96664.19;;;10.36;53.67
10992;BME280;5549;47.028;15.514;2023-04-08T07:31:23;96678.34;;;9.90;55.27
10992;BME280;5549;47.028;15.514;2023-04-08T07:33:52;96684.78;;;8.38;61.23
10992;BME280;5549;47.028;15.514;2023-04-08T07:36:20;96684.63;;;8.52;60.35
10992;BME280;5549;47.028;15.514;2023-04-08T07:38:50;96693.91;;;8.56;60.34
10992;BME280;5549;47.028;15.514;2023-04-08T07:41:17;96695.16;;;8.40;60.87
10992;BME280;5549;47.028;15.514;2023-04-08T07:43:48;96694.94;;;8.43;60.48
10992;BME280;5549;47.028;15.514;2023-04-08T07:46:18;96694.75;;;8.33;61.06
10992;BME280;5549;47.028;15.514;2023-04-08T07:48:48;96699.25;;;8.31;60.89
10992;BME280;5549;47.028;15.514;2023-04-08T07:51:18;96703.63;;;8.07;63.09
10992;BME280;5549;47.028;15.514;2023-04-08T07:53:45;96703.41;;;8.10;63.04
10992;BME280;5549;47.028;15.514;2023-04-08T07:56:16;96714.81;;;7.72;65.17
10992;BME280;5549;47.028;15.514;2023-04-08T07:58:45;96712.38;;;7.82;64.04
10992;BME280;5549;47.028;15.514;2023-04-08T08:01:17;96709.78;;;7.82;64.53
10992;BME280;5549;47.028;15.514;2023-04-08T08:03:45;96716.34;;;7.87;63.86
10992;BME280;5549;47.028;15.514;2023-04-08T08:06:13;96727.34;;;7.80;64.97
10992;BME280;5549;47.028;15.514;2023-04-08T08:08:43;96723.06;;;7.79;64.55
10992;BME280;5549;47.028;15.514;2023-04-08T08:11:10;96726.00;;;7.74;64.79
10992;BME280;5549;47.028;15.514;2023-04-08T08:13:40;96723.78;;;7.81;64.38
10992;BME280;5549;47.028;15.514;2023-04-08T08:16:10;96726.00;;;7.74;65.32
10992;BME280;5549;47.028;15.514;2023-04-08T08:18:40;96724.53;;;7.70;65.15
10992;BME280;5549;47.028;15.514;2023-04-08T08:21:10;96727.13;;;7.83;64.79
10992;BME280;5549;47.028;15.514;2023-04-08T08:23:41;96727.88;;;7.72;65.10
10992;BME280;5549;47.028;15.514;2023-04-08T08:26:09;96726.72;;;7.76;64.85
10992;BME280;5549;47.028;15.514;2023-04-08T08:28:37;96731.19;;;7.87;64.97
10992;BME280;5549;47.028;15.514;2023-04-08T08:31:05;96727.22;;;7.94;63.89
10992;BME280;5549;47.028;15.514;2023-04-08T08:33:33;96734.50;;;8.01;63.54
10992;BME280;5549;47.028;15.514;2023-04-08T08:36:02;96736.91;;;8.04;64.01
10992;BME280;5549;47.028;15.514;2023-04-08T08:38:31;96739.47;;;8.17;63.67
10992;BME280;5549;47.028;15.514;2023-04-08T08:41:03;96746.34;;;8.31;63.37
10992;BME280;5549;47.028;15.514;2023-04-08T08:43:34;96739.44;;;8.30;63.00
10992;BME280;5549;47.028;15.514;2023-04-08T08:46:03;96745.81;;;8.39;63.27
10992;BME280;5549;47.028;15.514;2023-04-08T08:48:30;96740.47;;;8.40;63.38
10992;BME280;5549;47.028;15.514;2023-04-08T08:51:01;96743.81;;;8.42;62.57
10992;BME280;5549;47.028;15.514;2023-04-08T08:53:34;96746.31;;;8.44;62.61
10992;BME280;5549;47.028;15.514;2023-04-08T08:56:08;96743.38;;;8.48;62.76
10992;BME280;5549;47.028;15.514;2023-04-08T08:58:36;96750.81;;;8.42;63.68
10992;BME280;5549;47.028;15.514;2023-04-08T09:01:35;96737.75;;;8.29;65.03
10992;BME280;5549;47.028;15.514;2023-04-08T09:04:12;96751.16;;;8.37;64.97
10992;BME280;5549;47.028;15.514;2023-04-08T09:06:44;96750.94;;;8.40;64.45
10992;BME280;5549;47.028;15.514;2023-04-08T09:09:14;96755.13;;;8.43;63.65
10992;BME280;5549;47.028;15.514;2023-04-08T09:11:44;96755.34;;;8.40;64.10
10992;BME280;5549;47.028;15.514;2023-04-08T09:14:22;96761.28;;;8.42;63.72
10992;BME280;5549;47.028;15.514;2023-04-08T09:16:53;96761.09;;;8.32;64.17
10992;BME280;5549;47.028;15.514;2023-04-08T09:19:20;96761.19;;;8.43;64.29
10992;BME280;5549;47.028;15.514;2023-04-08T09:22:06;96763.63;;;8.33;64.42
10992;BME280;5549;47.028;15.514;2023-04-08T09:24:35;96771.56;;;8.32;64.51
10992;BME280;5549;47.028;15.514;2023-04-08T09:27:05;96766.66;;;8.27;64.90
10992;BME280;5549;47.028;15.514;2023-04-08T09:29:32;96776.22;;;8.16;65.05
10992;BME280;5549;47.028;15.514;2023-04-08T09:32:01;96770.25;;;8.14;65.09
10992;BME280;5549;47.028;15.514;2023-04-08T09:34:30;96772.97;;;8.12;65.69
10992;BME280;5549;47.028;15.514;2023-04-08T09:37:01;96773.13;;;7.98;65.53
10992;BME280;5549;47.028;15.514;2023-04-08T09:39:31;96780.00;;;8.12;65.27
10992;BME280;5549;47.028;15.514;2023-04-08T09:42:00;96777.81;;;8.05;65.02
10992;BME280;5549;47.028;15.514;2023-04-08T09:44:35;96779.50;;;7.94;66.89
10992;BME280;5549;47.028;15.514;2023-04-08T09:47:18;96780.56;;;7.79;67.35
10992;BME280;5549;47.028;15.514;2023-04-08T09:49:54;96779.81;;;7.89;66.81
10992;BME280;5549;47.028;15.514;2023-04-08T09:52:32;96784.63;;;7.95;65.68
10992;BME280;5549;47.028;15.514;2023-04-08T09:55:05;96791.81;;;8.04;65.99
10992;BME280;5549;47.028;15.514;2023-04-08T09:57:43;96786.28;;;8.09;65.51
10992;BME280;5549;47.028;15.514;2023-04-08T10:00:16;96795.53;;;7.77;67.37
10992;BME280;5549;47.028;15.514;2023-04-08T10:02:54;96791.13;;;7.77;66.79
10992;BME280;5549;47.028;15.514;2023-04-08T10:05:24;96791.53;;;7.96;65.95
10992;BME280;5549;47.028;15.514;2023-04-08T10:07:55;96794.22;;;8.08;65.29
10992;BME280;5549;47.028;15.514;2023-04-08T10:10:24;96787.84;;;8.12;66.16
10992;BME280;5549;47.028;15.514;2023-04-08T10:12:54;96788.88;;;8.09;66.29
10992;BME280;5549;47.028;15.514;2023-04-08T10:15:28;96789.81;;;8.21;66.06
10992;BME280;5549;47.028;15.514;2023-04-08T10:18:32;96786.00;;;8.38;65.93
10992;BME280;5549;47.028;15.514;2023-04-08T10:21:01;96787.78;;;8.37;66.35
10992;BME280;5549;47.028;15.514;2023-04-08T10:23:55;96781.91;;;8.46;65.97
10992;BME280;5549;47.028;15.514;2023-04-08T10:26:36;96778.78;;;8.41;65.88
10992;BME280;5549;47.028;15.514;2023-04-08T10:29:32;96783.63;;;8.22;66.27
10992;BME280;5549;47.028;15.514;2023-04-08T10:32:02;96784.25;;;8.25;66.11
10992;BME280;5549;47.028;15.514;2023-04-08T10:34:31;96784.78;;;8.18;66.08
10992;BME280;5549;47.028;15.514;2023-04-08T10:37:00;96780.56;;;8.28;65.94
10992;BME280;5549;47.028;15.514;2023-04-08T10:39:31;96790.41;;;8.37;66.35
10992;BME280;5549;47.028;15.514;2023-04-08T10:42:01;96781.41;;;8.41;66.24
10992;BME280;5549;47.028;15.514;2023-04-08T10:44:29;96783.56;;;8.47;66.08
10992;BME280;5549;47.028;15.514;2023-04-08T10:46:56;96782.91;;;8.56;65.80
10992;BME280;5549;47.028;15.514;2023-04-08T10:49:33;96781.63;;;8.38;67.90
10992;BME280;5549;47.028;15.514;2023-04-08T10:52:06;96788.63;;;8.38;67.78
10992;BME280;5549;47.028;15.514;2023-04-08T10:54:35;96786.13;;;8.36;67.37
10992;BME280;5549;47.028;15.514;2023-04-08T10:57:03;96783.19;;;8.41;68.06
10992;BME280;5549;47.028;15.514;2023-04-08T10:59:32;96783.19;;;8.28;68.57
10992;BME280;5549;47.028;15.514;2023-04-08T11:02:00;96782.56;;;8.24;68.90
10992;BME280;5549;47.028;15.514;2023-04-08T11:04:28;96781.94;;;8.21;68.89
10992;BME280;5549;47.028;15.514;2023-04-08T11:06:57;96782.69;;;8.23;69.29
10992;BME280;5549;47.028;15.514;2023-04-08T11:09:25;96782.97;;;8.31;67.94
10992;BME280;5549;47.028;15.514;2023-04-08T11:11:52;96789.47;;;8.25;68.37
10992;BME280;5549;47.028;15.514;2023-04-08T11:14:23;96783.78;;;8.44;66.95
10992;BME280;5549;47.028;15.514;2023-04-08T11:16:53;96784.31;;;8.49;67.14
10992;BME280;5549;47.028;15.514;2023-04-08T11:19:21;96784.81;;;8.54;67.00
10992;BME280;5549;47.028;15.514;2023-04-08T11:21:50;96779.97;;;8.61;67.47
10992;BME280;5549;47.028;15.514;2023-04-08T11:24:21;96783.38;;;8.74;67.58
10992;BME280;5549;47.028;15.514;2023-04-08T11:26:51;96784.09;;;8.76;68.14
10992;BME280;5549;47.028;15.514;2023-04-08T11:29:20;96780.44;;;8.79;68.21
10992;BME280;5549;47.028;15.514;2023-04-08T11:31:47;96784.72;;;8.80;67.99
10992;BME280;5549;47.028;15.514;2023-04-08T11:34:22;96782.53;;;8.74;68.01
10992;BME280;5549;47.028;15.514;2023-04-08T11:36:50;96783.91;;;8.66;67.66
10992;BME280;5549;47.028;15.514;2023-04-08T11:39:20;96784.06;;;8.52;67.10
10992;BME280;5549;47.028;15.514;2023-04-08T11:41:52;96777.34;;;8.61;66.65
10992;BME280;5549;47.028;15.514;2023-04-08T11:44:29;96782.81;;;8.82;66.07
10992;BME280;5549;47.028;15.514;2023-04-08T11:46:58;96785.09;;;8.62;67.26
10992;BME280;5549;47.028;15.514;2023-04-08T11:49:43;96788.63;;;8.74;67.70
10992;BME280;5549;47.028;15.514;2023-04-08T11:52:11;96778.88;;;8.76;67.25
10992;BME280;5549;47.028;15.514;2023-04-08T11:54:42;96784.44;;;8.35;69.67
10992;BME280;5549;47.028;15.514;2023-04-08T11:57:13;96779.47;;;8.07;71.68
10992;BME280;5549;47.028;15.514;2023-04-08T11:59:43;96783.03;;;8.05;72.76
10992;BME280;5549;47.028;15.514;2023-04-08T12:02:13;96782.66;;;7.86;74.19
10992;BME280;5549;47.028;15.514;2023-04-08T12:04:42;96775.69;;;8.11;73.36
10992;BME280;5549;47.028;15.514;2023-04-08T12:07:11;96772.94;;;8.25;71.93
10992;BME280;5549;47.028;15.514;2023-04-08T12:09:41;96778.16;;;8.38;70.62
10992;BME280;5549;47.028;15.514;2023-04-08T12:12:13;96770.50;;;8.71;70.59
10992;BME280;5549;47.028;15.514;2023-04-08T12:14:43;96779.25;;;8.83;70.14
10992;BME280;5549;47.028;15.514;2023-04-08T12:17:13;96770.75;;;8.55;68.80
10992;BME280;5549;47.028;15.514;2023-04-08T12:19:41;96776.00;;;8.55;69.53
10992;BME280;5549;47.028;15.514;2023-04-08T12:22:08;96773.88;;;8.60;70.21
10992;BME280;5549;47.028;15.514;2023-04-08T12:24:39;96778.88;;;8.76;69.92
10992;BME280;5549;47.028;15.514;2023-04-08T12:27:07;96772.72;;;8.64;69.90
10992;BME280;5549;47.028;15.514;2023-04-08T12:29:38;96772.53;;;8.67;69.02
10992;BME280;5549;47.028;15.514;2023-04-08T12:32:06;96771.44;;;8.46;69.54
10992;BME280;5549;47.028;15.514;2023-04-08T12:34:34;96771.88;;;8.40;70.02
10992;BME280;5549;47.028;15.514;2023-04-08T12:37:01;96772.97;;;8.12;70.79
10992;BME280;5549;47.028;15.514;2023-04-08T12:39:29;96780.81;;;8.12;71.81
10992;BME280;5549;47.028;15.514;2023-04-08T12:41:56;96773.88;;;8.24;69.55
10992;BME280;5549;47.028;15.514;2023-04-08T12:44:24;96776.38;;;8.38;69.29
10992;BME280;5549;47.028;15.514;2023-04-08T12:46:53;96780.00;;;8.12;71.27
10992;BME280;5549;47.028;15.514;2023-04-08T12:49:21;96777.94;;;7.91;72.72
10992;BME280;5549;47.028;15.514;2023-04-08T12:51:48;96774.69;;;8.00;72.87
10992;BME280;5549;47.028;15.514;2023-04-08T12:54:16;96774.69;;;7.88;74.91
10992;BME280;5549;47.028;15.514;2023-04-08T12:56:44;96780.47;;;7.80;74.70
10992;BME280;5549;47.028;15.514;2023-04-08T12:59:14;96783.50;;;7.74;73.96
10992;BME280;5549;47.028;15.514;2023-04-08T13:01:44;96785.50;;;7.58;75.34
10992;BME280;5549;47.028;15.514;2023-04-08T13:04:13;96782.16;;;7.43;75.49
10992;BME280;5549;47.028;15.514;2023-04-08T13:06:41;96780.16;;;7.21;76.20
10992;BME280;5549;47.028;15.514;2023-04-08T13:09:08;96775.56;;;7.12;77.43
10992;BME280;5549;47.028;15.514;2023-04-08T13:11:36;96777.84;;;7.17;78.31
10992;BME280;5549;47.028;15.514;2023-04-08T13:14:06;96781.84;;;7.22;78.21
10992;BME280;5549;47.028;15.514;2023-04-08T13:16:36;96778.28;;;7.49;76.87
10992;BME280;5549;47.028;15.514;2023-04-08T13:19:04;96782.56;;;7.62;76.30
10992;BME280;5549;47.028;15.514;2023-04-08T13:21:33;96779.03;;;7.63;75.98
10992;BME280;5549;47.028;15.514;2023-04-08T13:24:00;96778.09;;;7.52;75.81
10992;BME280;5549;47.028;15.514;2023-04-08T13:26:28;96782.16;;;7.43;75.39